Long Lake, Indiana
Current Conditions -  °F | °C
As of 11:15 AM on Sunday 23 Nov 2014 (Local Time) from KANQ Reporting Station
Clear Clear  
Wind Chill:   Ceiling: Unl
Heat Index:   Visibility: 10mi
Dew Point:   Wind: 8mph
Humidity: 62%   Direction: 180°S
Pressure: 29.85"   Gusts: NA
Location:  41.7284°N, 84.9169°W
Report Text: KANQ 231615Z AUTO 18007KT 10SM CLR 09/02 A2985 RMK
Loading
Personal Weather Stations






























Interactive Weather Map New forecast layout! Learn more

10-Day Weather Forecast

Advertisements
Track Severe Weather on mobile